Time,TemperatureF,DewpointF,PressureIn,WindDirection,WindDirectionDegrees,WindSpeedMPH,WindSpeedGustMPH,Humidity,HourlyPrecipIn,Conditions,Clouds,dailyrainin,SoftwareType,DateUTC
2013-07-02 00:12:00,64.6,53.0,29.97,East,91,0.0,3.0,66,0.00,,,0.00,weatherlink.com 1.10,2013-07-02 05:12:00,
2013-07-02 00:27:00,62.9,55.0,29.97,East,92,0.0,1.0,75,0.00,,,0.00,weatherlink.com 1.10,2013-07-02 05:27:00,
2013-07-02 00:42:00,63.0,53.0,29.98,East,91,0.0,1.0,69,0.00,,,0.00,weatherlink.com 1.10,2013-07-02 05:42:00,
2013-07-02 00:57:00,62.4,55.0,29.98,NNE,30,0.0,2.0,77,0.00,,,0.00,weatherlink.com 1.10,2013-07-02 05:57:00,
2013-07-02 01:12:00,63.3,53.0,29.98,NE,52,0.0,2.0,70,0.00,,,0.00,weatherlink.com 1.10,2013-07-02 06:12:00,
2013-07-02 01:27:00,62.6,54.0,29.99,NE,43,0.0,3.0,73,0.00,,,0.00,weatherlink.com 1.10,2013-07-02 06:27:00,
2013-07-02 01:42:00,60.0,55.0,29.99,ENE,78,0.0,1.0,82,0.00,,,0.00,weatherlink.com 1.10,2013-07-02 06:42:00,
2013-07-02 01:57:00,60.1,55.0,29.98,ENE,78,0.0,1.0,82,0.00,,,0.00,weatherlink.com 1.10,2013-07-02 06:57:00,
2013-07-02 02:12:00,60.0,55.0,29.98,ENE,78,0.0,0.0,82,0.00,,,0.00,weatherlink.com 1.10,2013-07-02 07:12:00,
2013-07-02 02:27:00,59.3,54.0,29.97,ENE,78,0.0,0.0,81,0.00,,,0.00,weatherlink.com 1.10,2013-07-02 07:27:00,
2013-07-02 02:42:00,60.1,53.0,29.97,ENE,78,1.0,1.0,76,0.00,,,0.00,weatherlink.com 1.10,2013-07-02 07:42:00,
2013-07-02 02:57:00,59.0,53.0,29.97,ENE,78,0.0,0.0,80,0.00,,,0.00,weatherlink.com 1.10,2013-07-02 07:57:00,
2013-07-02 03:12:00,58.4,53.0,29.97,ENE,78,0.0,0.0,82,0.00,,,0.00,weatherlink.com 1.10,2013-07-02 08:12:00,
2013-07-02 03:27:00,60.1,54.0,29.97,ENE,78,0.0,1.0,79,0.00,,,0.00,weatherlink.com 1.10,2013-07-02 08:27:00,
2013-07-02 03:42:00,58.3,53.0,29.97,ENE,78,0.0,0.0,82,0.00,,,0.00,weatherlink.com 1.10,2013-07-02 08:42:00,
2013-07-02 03:57:00,57.3,52.0,29.97,ENE,78,0.0,0.0,83,0.00,,,0.00,weatherlink.com 1.10,2013-07-02 08:57:00,
2013-07-02 04:12:00,58.1,53.0,29.97,ENE,78,0.0,0.0,83,0.00,,,0.00,weatherlink.com 1.10,2013-07-02 09:12:00,
2013-07-02 04:27:00,58.1,53.0,29.98,ENE,78,0.0,0.0,83,0.00,,,0.00,weatherlink.com 1.10,2013-07-02 09:27:00,
2013-07-02 04:42:00,58.1,53.0,29.98,ENE,78,0.0,0.0,83,0.00,,,0.00,weatherlink.com 1.10,2013-07-02 09:42:00,
2013-07-02 04:57:00,58.1,53.0,29.98,ENE,78,0.0,0.0,83,0.00,,,0.00,weatherlink.com 1.10,2013-07-02 09:57:00,
2013-07-02 05:12:00,57.1,52.0,29.98,ENE,78,0.0,0.0,83,0.00,,,0.00,weatherlink.com 1.10,2013-07-02 10:12:00,
2013-07-02 05:27:00,56.1,52.0,29.99,ENE,78,0.0,0.0,85,0.00,,,0.00,weatherlink.com 1.10,2013-07-02 10:27:00,
2013-07-02 05:42:00,56.9,53.0,29.99,ENE,78,0.0,0.0,85,0.00,,,0.00,weatherlink.com 1.10,2013-07-02 10:42:00,
2013-07-02 05:57:00,57.4,52.0,29.99,ENE,78,1.0,2.0,83,0.00,,,0.00,weatherlink.com 1.10,2013-07-02 10:57:00,
2013-07-02 06:13:00,58.1,53.0,30.00,East,87,0.0,1.0,83,0.00,,,0.00,weatherlink.com 1.10,2013-07-02 11:13:00,
2013-07-02 06:28:00,58.1,53.0,30.00,East,87,0.0,1.0,83,0.00,,,0.00,weatherlink.com 1.10,2013-07-02 11:28:00,
2013-07-02 06:43:00,57.1,52.0,30.00,East,87,0.0,0.0,83,0.00,,,0.00,weatherlink.com 1.10,2013-07-02 11:43:00,
2013-07-02 06:58:00,57.1,52.0,30.01,East,87,0.0,0.0,83,0.00,,,0.00,weatherlink.com 1.10,2013-07-02 11:58:00,
2013-07-02 07:14:00,57.8,52.0,30.02,East,87,0.0,0.0,82,0.00,,,0.00,weatherlink.com 1.10,2013-07-02 12:14:00,
2013-07-02 07:28:00,56.9,52.0,30.02,East,88,0.0,0.0,83,0.00,,,0.00,weatherlink.com 1.10,2013-07-02 12:28:00,
2013-07-02 07:43:00,57.6,52.0,30.02,East,88,0.0,0.0,82,0.00,,,0.00,weatherlink.com 1.10,2013-07-02 12:43:00,
2013-07-02 07:58:00,58.2,52.0,30.03,East,88,0.0,0.0,81,0.00,,,0.00,weatherlink.com 1.10,2013-07-02 12:58:00,
2013-07-02 08:13:00,58.9,52.0,30.03,East,88,0.0,0.0,79,0.00,,,0.00,weatherlink.com 1.10,2013-07-02 13:13:00,
2013-07-02 08:28:00,59.9,53.0,30.03,East,88,0.0,0.0,78,0.00,,,0.00,weatherlink.com 1.10,2013-07-02 13:28:00,
2013-07-02 08:43:00,62.2,54.0,30.03,East,88,0.0,1.0,75,0.00,,,0.00,weatherlink.com 1.10,2013-07-02 13:43:00,
2013-07-02 08:58:00,63.2,54.0,30.04,East,87,0.0,0.0,73,0.00,,,0.00,weatherlink.com 1.10,2013-07-02 13:58:00,
2013-07-02 09:13:00,65.3,55.0,30.04,East,87,0.0,0.0,69,0.00,,,0.00,weatherlink.com 1.10,2013-07-02 14:13:00,
2013-07-02 09:28:00,66.7,53.0,30.04,NW,309,0.0,2.0,62,0.00,,,0.00,weatherlink.com 1.10,2013-07-02 14:28:00,
2013-07-02 09:43:00,67.7,53.0,30.04,NE,46,0.0,4.0,59,0.00,,,0.00,weatherlink.com 1.10,2013-07-02 14:43:00,
2013-07-02 09:58:00,68.9,52.0,30.04,NW,320,0.0,3.0,56,0.00,,,0.00,weatherlink.com 1.10,2013-07-02 14:58:00,
2013-07-02 10:13:00,70.3,52.0,30.04,ESE,107,1.0,7.0,53,0.00,,,0.00,weatherlink.com 1.10,2013-07-02 15:13:00,
2013-07-02 10:28:00,71.0,52.0,30.04,North,5,1.0,6.0,51,0.00,,,0.00,weatherlink.com 1.10,2013-07-02 15:28:00,
2013-07-02 10:43:00,71.4,52.0,30.03,ENE,68,4.0,5.0,50,0.00,,,0.00,weatherlink.com 1.10,2013-07-02 15:43:00,
2013-07-02 10:58:00,72.5,52.0,30.04,NE,46,0.0,6.0,49,0.00,,,0.00,weatherlink.com 1.10,2013-07-02 15:58:00,
2013-07-02 11:14:00,73.3,52.0,30.04,NNE,14,2.0,8.0,47,0.00,,,0.00,weatherlink.com 1.10,2013-07-02 16:14:00,
2013-07-02 11:29:00,74.7,52.0,30.04,East,99,1.0,7.0,45,0.00,,,0.00,weatherlink.com 1.10,2013-07-02 16:29:00,
2013-07-02 11:44:00,75.6,52.0,30.04,ESE,112,1.0,11.0,44,0.00,,,0.00,weatherlink.com 1.10,2013-07-02 16:44:00,
2013-07-02 11:59:00,75.8,52.0,30.04,SE,136,2.0,8.0,43,0.00,,,0.00,weatherlink.com 1.10,2013-07-02 16:59:00,
2013-07-02 12:14:00,77.2,52.0,30.03,WNW,289,5.0,5.0,42,0.00,,,0.00,weatherlink.com 1.10,2013-07-02 17:14:00,
2013-07-02 12:29:00,76.0,51.0,30.03,SE,126,1.0,9.0,41,0.00,,,0.00,weatherlink.com 1.10,2013-07-02 17:29:00,
2013-07-02 12:44:00,76.3,50.0,30.02,SE,126,0.0,10.0,40,0.00,,,0.00,weatherlink.com 1.10,2013-07-02 17:44:00,
2013-07-02 12:59:00,77.4,50.0,30.02,ESE,110,1.0,8.0,38,0.00,,,0.00,weatherlink.com 1.10,2013-07-02 17:59:00,
2013-07-02 13:14:00,75.8,50.0,30.01,ESE,105,4.0,9.0,40,0.00,,,0.00,weatherlink.com 1.10,2013-07-02 18:14:00,
2013-07-02 13:29:00,77.1,50.0,30.00,ESE,112,1.0,8.0,39,0.00,,,0.00,weatherlink.com 1.10,2013-07-02 18:29:00,
2013-07-02 13:44:00,80.4,51.0,30.00,WNW,290,3.0,7.0,36,0.00,,,0.00,weatherlink.com 1.10,2013-07-02 18:44:00,
2013-07-02 13:59:00,79.1,48.0,30.00,SSE,149,1.0,7.0,34,0.00,,,0.00,weatherlink.com 1.10,2013-07-02 18:59:00,
2013-07-02 14:14:00,78.1,50.0,29.99,SE,140,1.0,10.0,37,0.00,,,0.00,weatherlink.com 1.10,2013-07-02 19:14:00,
2013-07-02 14:29:00,79.3,51.0,29.98,ENE,68,1.0,9.0,37,0.00,,,0.00,weatherlink.com 1.10,2013-07-02 19:29:00,
2013-07-02 14:44:00,80.7,49.0,29.97,ESE,102,1.0,9.0,33,0.00,,,0.00,weatherlink.com 1.10,2013-07-02 19:44:00,
2013-07-02 14:59:00,79.2,48.0,29.96,SSE,150,1.0,8.0,34,0.00,,,0.00,weatherlink.com 1.10,2013-07-02 19:59:00,
2013-07-02 15:14:00,79.1,51.0,29.96,NNW,336,3.0,7.0,37,0.00,,,0.00,weatherlink.com 1.10,2013-07-02 20:14:00,
2013-07-02 15:29:00,82.3,50.0,29.95,NW,304,0.0,5.0,32,0.00,,,0.00,weatherlink.com 1.10,2013-07-02 20:29:00,
2013-07-02 15:44:00,79.2,48.0,29.94,SE,127,1.0,8.0,33,0.00,,,0.00,weatherlink.com 1.10,2013-07-02 20:44:00,
2013-07-02 15:59:00,79.7,50.0,29.94,NE,48,3.0,9.0,36,0.00,,,0.00,weatherlink.com 1.10,2013-07-02 20:59:00,
2013-07-02 16:14:00,80.1,49.0,29.93,East,90,2.0,5.0,34,0.00,,,0.00,weatherlink.com 1.10,2013-07-02 21:14:00,
2013-07-02 16:29:00,80.2,49.0,29.92,SSE,162,0.0,13.0,34,0.00,,,0.00,weatherlink.com 1.10,2013-07-02 21:29:00,
2013-07-02 16:44:00,81.7,49.0,29.91,ESE,121,5.0,10.0,32,0.00,,,0.00,weatherlink.com 1.10,2013-07-02 21:44:00,
2013-07-02 16:59:00,80.4,48.0,29.91,WNW,284,2.0,6.0,32,0.00,,,0.00,weatherlink.com 1.10,2013-07-02 21:59:00,
2013-07-02 17:14:00,80.5,48.0,29.91,SE,145,2.0,5.0,32,0.00,,,0.00,weatherlink.com 1.10,2013-07-02 22:14:00,
2013-07-02 17:29:00,82.3,49.0,29.90,SSE,148,0.0,9.0,31,0.00,,,0.00,weatherlink.com 1.10,2013-07-02 22:29:00,
2013-07-02 17:44:00,82.6,49.0,29.89,North,355,2.0,7.0,31,0.00,,,0.00,weatherlink.com 1.10,2013-07-02 22:44:00,
2013-07-02 17:59:00,81.3,49.0,29.89,WSW,238,0.0,6.0,32,0.00,,,0.00,weatherlink.com 1.10,2013-07-02 22:59:00,
2013-07-02 18:14:00,81.2,49.0,29.88,SE,136,5.0,6.0,32,0.00,,,0.00,weatherlink.com 1.10,2013-07-02 23:14:00,
2013-07-02 18:29:00,81.0,49.0,29.87,NNW,335,0.0,9.0,33,0.00,,,0.00,weatherlink.com 1.10,2013-07-02 23:29:00,
2013-07-02 18:44:00,81.0,48.0,29.87,North,9,2.0,10.0,32,0.00,,,0.00,weatherlink.com 1.10,2013-07-02 23:44:00,
2013-07-02 18:59:00,81.0,49.0,29.87,NW,306,1.0,9.0,33,0.00,,,0.00,weatherlink.com 1.10,2013-07-02 23:59:00,
2013-07-02 19:14:00,81.1,49.0,29.87,NE,45,2.0,10.0,33,0.00,,,0.00,weatherlink.com 1.10,2013-07-03 00:14:00,
2013-07-02 19:29:00,79.3,49.0,29.86,ESE,115,4.0,10.0,35,0.00,,,0.00,weatherlink.com 1.10,2013-07-03 00:29:00,
2013-07-02 19:44:00,78.6,49.0,29.87,ESE,119,9.0,14.0,35,0.00,,,0.00,weatherlink.com 1.10,2013-07-03 00:44:00,
2013-07-02 19:59:00,77.7,49.0,29.87,ESE,122,5.0,14.0,36,0.00,,,0.00,weatherlink.com 1.10,2013-07-03 00:59:00,
2013-07-02 20:14:00,76.9,49.0,29.87,SE,127,3.0,12.0,38,0.00,,,0.00,weatherlink.com 1.10,2013-07-03 01:14:00,
2013-07-02 20:29:00,76.2,49.0,29.88,ESE,117,7.0,14.0,38,0.00,,,0.00,weatherlink.com 1.10,2013-07-03 01:29:00,
2013-07-02 20:44:00,75.1,49.0,29.88,ESE,119,4.0,7.0,40,0.00,,,0.00,weatherlink.com 1.10,2013-07-03 01:44:00,
2013-07-02 21:14:00,73.7,48.0,29.89,East,101,5.0,12.0,41,0.00,,,0.00,weatherlink.com 1.10,2013-07-03 02:14:00,
2013-07-02 21:29:00,73.1,48.0,29.89,ENE,77,1.0,8.0,41,0.00,,,0.00,weatherlink.com 1.10,2013-07-03 02:29:00,
2013-07-02 21:44:00,72.6,47.0,29.89,ESE,106,4.0,9.0,41,0.00,,,0.00,weatherlink.com 1.10,2013-07-03 02:44:00,
2013-07-02 21:59:00,72.2,48.0,29.91,ESE,113,5.0,10.0,42,0.00,,,0.00,weatherlink.com 1.10,2013-07-03 02:59:00,
2013-07-02 22:29:00,71.6,47.0,29.91,ESE,111,2.0,5.0,42,0.00,,,0.00,weatherlink.com 1.10,2013-07-03 03:29:00,
2013-07-02 22:44:00,71.2,47.0,29.91,ESE,104,3.0,6.0,43,0.00,,,0.00,weatherlink.com 1.10,2013-07-03 03:44:00,
2013-07-02 23:15:00,70.2,47.0,29.93,SE,142,0.0,3.0,43,0.00,,,0.00,weatherlink.com 1.10,2013-07-03 04:15:00,
2013-07-02 23:30:00,69.6,47.0,29.93,SE,132,2.0,2.0,45,0.00,,,0.00,weatherlink.com 1.10,2013-07-03 04:30:00,
2013-07-02 23:45:00,69.9,47.0,29.93,ESE,115,2.0,4.0,44,0.00,,,0.00,weatherlink.com 1.10,2013-07-03 04:45:00,